B3028 ZGGG-ZYTL
Flight info
| Callsign | B3028 |
|---|---|
| Flight time | N/A |
| Altitude | 37100 |
| Route | LMN9 LMN G471 XEBUL DCT ODOPI DCT AKAVO DCT DST W117 BEGMO W13 PINOT B221 XDX DCT URBAD W172 IGDEG W173 NIXEP NIX19A |
| Aircraft | CL60/M-SBDE1E2E3FGHIJ1J4J5J7M3RWXYZ/LB1V1D1 |
Departure
| Time | N/A |
|---|---|
| Airport | Guangzhou Baiyun International Airport (ZGGG) |
Arrival
| Time | 2026-05-04 09:17 |
|---|---|
| Airport | Dalian Zhoushuizi International Airport (ZYTL) |
| Time | Latitude | Longitude | Altitude | Speed | Heading |
|---|---|---|---|---|---|
| 2026-05-04 06:40 | 23.88669 | 114.47562 | 15074 ft | 412 kts | 36° |
| 2026-05-04 06:40 | 23.90846 | 114.49614 | 15084 ft | 412 kts | 36° |
| 2026-05-04 06:40 | 23.93035 | 114.51680 | 15097 ft | 410 kts | 36° |
| 2026-05-04 06:40 | 23.95195 | 114.53718 | 15096 ft | 409 kts | 36° |
| 2026-05-04 06:41 | 23.97367 | 114.55767 | 15087 ft | 409 kts | 36° |
| 2026-05-04 06:41 | 23.99530 | 114.57808 | 15093 ft | 409 kts | 36° |
| 2026-05-04 06:41 | 24.01696 | 114.59850 | 15101 ft | 416 kts | 36° |
| 2026-05-04 06:41 | 24.03931 | 114.61956 | 15687 ft | 427 kts | 36° |
| 2026-05-04 06:42 | 24.06171 | 114.64072 | 16652 ft | 427 kts | 36° |
| 2026-05-04 06:42 | 24.08421 | 114.66197 | 17476 ft | 430 kts | 36° |
| 2026-05-04 06:42 | 24.10691 | 114.68340 | 18219 ft | 434 kts | 36° |
| 2026-05-04 06:44 | 24.27351 | 114.84107 | 22543 ft | 470 kts | 37° |
| 2026-05-04 06:44 | 24.29595 | 114.86757 | 23072 ft | 481 kts | 48° |
| 2026-05-04 06:44 | 24.31647 | 114.89694 | 23611 ft | 486 kts | 49° |
| 2026-05-04 06:45 | 24.33713 | 114.92655 | 24096 ft | 492 kts | 50° |
| 2026-05-04 06:45 | 24.35809 | 114.95652 | 24613 ft | 496 kts | 50° |
| 2026-05-04 06:45 | 24.37928 | 114.98681 | 25109 ft | 501 kts | 50° |
| 2026-05-04 06:45 | 24.40061 | 115.01732 | 25604 ft | 504 kts | 50° |
| 2026-05-04 06:46 | 24.42213 | 115.04811 | 26063 ft | 509 kts | 49° |
| 2026-05-04 06:46 | 24.44375 | 115.07906 | 26554 ft | 512 kts | 50° |
| 2026-05-04 06:46 | 24.46554 | 115.11026 | 27025 ft | 515 kts | 50° |
| 2026-05-04 06:46 | 24.48748 | 115.14168 | 27404 ft | 520 kts | 50° |
| 2026-05-04 06:48 | 24.64471 | 115.36738 | 30050 ft | 542 kts | 50° |
| 2026-05-04 06:48 | 24.66756 | 115.40031 | 30403 ft | 544 kts | 50° |
| 2026-05-04 06:49 | 24.69004 | 115.43399 | 30691 ft | 547 kts | 52° |
| 2026-05-04 06:50 | 24.84775 | 115.67701 | 32347 ft | 559 kts | 52° |
| 2026-05-04 06:51 | 24.87027 | 115.71179 | 32602 ft | 559 kts | 53° |
| 2026-05-04 06:51 | 24.89287 | 115.74673 | 32829 ft | 560 kts | 53° |
| 2026-05-04 06:51 | 24.91549 | 115.78171 | 33081 ft | 561 kts | 52° |
| 2026-05-04 06:51 | 24.93810 | 115.81670 | 33381 ft | 560 kts | 53° |
| 2026-05-04 06:52 | 24.96076 | 115.85143 | 33594 ft | 558 kts | 51° |
| 2026-05-04 06:52 | 24.98462 | 115.88545 | 33467 ft | 565 kts | 48° |
| 2026-05-04 06:52 | 25.01000 | 115.91913 | 33201 ft | 574 kts | 50° |
| 2026-05-04 06:52 | 25.03315 | 115.95503 | 32961 ft | 575 kts | 54° |
| 2026-05-04 06:53 | 25.05559 | 115.99131 | 32739 ft | 571 kts | 54° |
| 2026-05-04 06:53 | 25.07797 | 116.02722 | 32629 ft | 565 kts | 54° |
| 2026-05-04 06:53 | 25.10012 | 116.06255 | 32974 ft | 558 kts | 53° |
| 2026-05-04 06:53 | 25.12225 | 116.09777 | 33273 ft | 558 kts | 53° |
| 2026-05-04 06:54 | 25.14435 | 116.13285 | 33614 ft | 556 kts | 53° |
| 2026-05-04 06:54 | 25.16645 | 116.16786 | 33999 ft | 554 kts | 53° |
| 2026-05-04 06:54 | 25.18848 | 116.20272 | 34389 ft | 552 kts | 52° |
| 2026-05-04 06:54 | 25.21036 | 116.23730 | 34763 ft | 549 kts | 52° |
| 2026-05-04 06:55 | 25.23220 | 116.27179 | 35101 ft | 548 kts | 51° |
| 2026-05-04 06:55 | 25.25399 | 116.30617 | 35460 ft | 545 kts | 51° |
| 2026-05-04 06:55 | 25.27581 | 116.34059 | 35735 ft | 544 kts | 51° |
| 2026-05-04 06:55 | 25.29753 | 116.37480 | 35978 ft | 545 kts | 51° |
| 2026-05-04 06:56 | 25.31924 | 116.40903 | 36160 ft | 543 kts | 51° |
| 2026-05-04 06:57 | 25.47122 | 116.64855 | 37194 ft | 544 kts | 50° |
| 2026-05-04 06:58 | 25.51457 | 116.71697 | 37190 ft | 543 kts | 51° |
| 2026-05-04 06:58 | 25.55791 | 116.78545 | 37189 ft | 544 kts | 50° |
| 2026-05-04 06:59 | 25.60136 | 116.85417 | 37192 ft | 546 kts | 51° |
| 2026-05-04 06:59 | 25.64483 | 116.92303 | 37200 ft | 546 kts | 50° |
| 2026-05-04 07:01 | 25.81857 | 117.19912 | 37208 ft | 546 kts | 50° |
| 2026-05-04 07:02 | 25.86189 | 117.26820 | 37215 ft | 546 kts | 51° |
| 2026-05-04 07:02 | 25.90524 | 117.33743 | 37220 ft | 547 kts | 51° |
| 2026-05-04 07:03 | 25.94867 | 117.40690 | 37218 ft | 548 kts | 51° |
| 2026-05-04 07:03 | 25.99207 | 117.47642 | 37233 ft | 549 kts | 50° |
| 2026-05-04 07:04 | 26.03546 | 117.54601 | 37225 ft | 549 kts | 51° |
| 2026-05-04 07:04 | 26.07884 | 117.61571 | 37218 ft | 549 kts | 51° |
| 2026-05-04 07:05 | 26.12228 | 117.68560 | 37222 ft | 549 kts | 51° |
| 2026-05-04 07:05 | 26.16565 | 117.75549 | 37226 ft | 549 kts | 51° |
| 2026-05-04 07:06 | 26.23078 | 117.86063 | 37227 ft | 552 kts | 51° |
| 2026-05-04 07:07 | 26.27424 | 117.93094 | 37222 ft | 552 kts | 51° |
| 2026-05-04 07:09 | 26.44778 | 118.21275 | 37214 ft | 552 kts | 51° |
| 2026-05-04 07:09 | 26.49117 | 118.28346 | 37215 ft | 552 kts | 51° |
| 2026-05-04 07:10 | 26.53454 | 118.35426 | 37213 ft | 554 kts | 51° |
| 2026-05-04 07:12 | 26.70841 | 118.63925 | 37230 ft | 556 kts | 51° |
| 2026-05-04 07:12 | 26.75187 | 118.71077 | 37237 ft | 556 kts | 52° |
| 2026-05-04 07:13 | 26.79526 | 118.78228 | 37238 ft | 556 kts | 52° |
| 2026-05-04 07:13 | 26.83862 | 118.85387 | 37240 ft | 556 kts | 52° |
| 2026-05-04 07:14 | 26.94720 | 119.03361 | 37246 ft | 558 kts | 51° |
| 2026-05-04 07:15 | 26.99063 | 119.10571 | 37245 ft | 559 kts | 52° |
| 2026-05-04 07:15 | 27.03406 | 119.17794 | 37246 ft | 559 kts | 51° |
| 2026-05-04 07:16 | 27.07747 | 119.25024 | 37247 ft | 559 kts | 51° |
| 2026-05-04 07:16 | 27.12089 | 119.32267 | 37247 ft | 560 kts | 51° |
| 2026-05-04 07:17 | 27.16425 | 119.39513 | 37248 ft | 560 kts | 51° |
| 2026-05-04 07:17 | 27.20765 | 119.46778 | 37245 ft | 561 kts | 51° |
| 2026-05-04 07:18 | 27.25101 | 119.54057 | 37243 ft | 562 kts | 52° |
| 2026-05-04 07:18 | 27.28893 | 119.61761 | 37238 ft | 567 kts | 59° |
| 2026-05-04 07:19 | 27.32506 | 119.69619 | 37244 ft | 566 kts | 59° |
| 2026-05-04 07:19 | 27.36114 | 119.77475 | 37245 ft | 567 kts | 60° |
| 2026-05-04 07:20 | 27.39723 | 119.85346 | 37246 ft | 567 kts | 60° |
| 2026-05-04 07:20 | 27.43335 | 119.93236 | 37244 ft | 568 kts | 59° |
| 2026-05-04 07:22 | 27.57763 | 120.24888 | 37246 ft | 569 kts | 60° |
| 2026-05-04 07:23 | 27.61361 | 120.32817 | 37246 ft | 570 kts | 60° |
| 2026-05-04 07:23 | 27.64960 | 120.40763 | 37246 ft | 570 kts | 59° |
| 2026-05-04 07:24 | 27.68550 | 120.48705 | 37243 ft | 570 kts | 60° |
| 2026-05-04 07:24 | 27.72140 | 120.56663 | 37245 ft | 570 kts | 60° |
| 2026-05-04 07:26 | 27.80911 | 120.91035 | 37256 ft | 574 kts | 77° |
| 2026-05-04 07:27 | 27.82746 | 120.99793 | 37253 ft | 574 kts | 76° |
| 2026-05-04 07:27 | 27.84574 | 121.08554 | 37255 ft | 575 kts | 76° |
| 2026-05-04 07:28 | 27.86396 | 121.17309 | 37255 ft | 575 kts | 77° |
| 2026-05-04 07:28 | 27.88217 | 121.26083 | 37252 ft | 574 kts | 77° |
| 2026-05-04 07:29 | 27.90035 | 121.34837 | 37251 ft | 574 kts | 77° |
| 2026-05-04 07:29 | 27.91847 | 121.43594 | 37250 ft | 573 kts | 77° |
| 2026-05-04 07:30 | 27.93659 | 121.52379 | 37246 ft | 573 kts | 77° |
| 2026-05-04 07:30 | 27.95461 | 121.61144 | 37244 ft | 574 kts | 77° |
| 2026-05-04 07:31 | 27.97731 | 121.69753 | 37244 ft | 572 kts | 66° |
| 2026-05-04 07:33 | 28.15436 | 121.92217 | 37234 ft | 535 kts | 19° |
| 2026-05-04 07:33 | 28.18726 | 121.94147 | 37228 ft | 532 kts | 17° |
| 2026-05-04 07:33 | 28.25330 | 121.97964 | 37229 ft | 532 kts | 17° |
| 2026-05-04 07:34 | 28.31920 | 122.01783 | 37230 ft | 532 kts | 17° |
| 2026-05-04 07:34 | 28.38508 | 122.05604 | 37229 ft | 532 kts | 17° |
| 2026-05-04 07:35 | 28.45108 | 122.09439 | 37227 ft | 533 kts | 17° |
| 2026-05-04 07:35 | 28.51707 | 122.13279 | 37222 ft | 533 kts | 17° |
| 2026-05-04 07:36 | 28.58297 | 122.17119 | 37221 ft | 533 kts | 17° |
| 2026-05-04 07:38 | 28.84709 | 122.32565 | 37215 ft | 534 kts | 17° |
| 2026-05-04 07:38 | 28.91328 | 122.36449 | 37214 ft | 536 kts | 17° |
| 2026-05-04 07:39 | 28.97946 | 122.40339 | 37212 ft | 536 kts | 17° |
| 2026-05-04 07:39 | 29.04573 | 122.44240 | 37215 ft | 536 kts | 17° |
| 2026-05-04 07:40 | 29.11223 | 122.48044 | 37212 ft | 529 kts | 12° |
| 2026-05-04 07:40 | 29.14637 | 122.49502 | 37214 ft | 518 kts | 5° |
| 2026-05-04 07:40 | 29.18085 | 122.50533 | 37213 ft | 507 kts | 359° |
| 2026-05-04 07:41 | 29.21531 | 122.51150 | 37212 ft | 496 kts | 353° |
| 2026-05-04 07:41 | 29.24936 | 122.51368 | 37209 ft | 486 kts | 347° |
| 2026-05-04 07:41 | 29.28279 | 122.51203 | 37209 ft | 475 kts | 341° |
| 2026-05-04 07:41 | 29.31512 | 122.50677 | 37208 ft | 464 kts | 335° |
| 2026-05-04 07:42 | 29.37821 | 122.49226 | 37201 ft | 463 kts | 334° |
| 2026-05-04 07:42 | 29.44135 | 122.47765 | 37211 ft | 463 kts | 334° |
| 2026-05-04 07:43 | 29.50444 | 122.46305 | 37203 ft | 462 kts | 334° |
| 2026-05-04 07:43 | 29.56744 | 122.44844 | 37197 ft | 462 kts | 334° |
| 2026-05-04 07:44 | 29.63047 | 122.43379 | 37194 ft | 462 kts | 334° |
| 2026-05-04 07:44 | 29.69348 | 122.41913 | 37199 ft | 462 kts | 334° |
| 2026-05-04 07:45 | 29.75647 | 122.40445 | 37201 ft | 461 kts | 334° |
| 2026-05-04 07:45 | 29.81943 | 122.38976 | 37192 ft | 462 kts | 334° |
| 2026-05-04 07:46 | 29.88234 | 122.37506 | 37193 ft | 461 kts | 334° |
| 2026-05-04 07:46 | 29.94712 | 122.36529 | 37194 ft | 483 kts | 345° |
| 2026-05-04 07:47 | 30.01534 | 122.36848 | 37188 ft | 493 kts | 349° |
| 2026-05-04 07:49 | 30.28801 | 122.38550 | 37185 ft | 488 kts | 349° |
| 2026-05-04 07:49 | 30.35587 | 122.38906 | 37183 ft | 489 kts | 349° |
| 2026-05-04 07:50 | 30.42394 | 122.39262 | 37181 ft | 491 kts | 349° |
| 2026-05-04 07:50 | 30.49205 | 122.39622 | 37185 ft | 490 kts | 349° |
| 2026-05-04 07:51 | 30.56014 | 122.39982 | 37184 ft | 490 kts | 349° |
| 2026-05-04 07:51 | 30.62824 | 122.40354 | 37184 ft | 490 kts | 349° |
| 2026-05-04 07:52 | 30.69629 | 122.40739 | 37184 ft | 490 kts | 350° |
| 2026-05-04 07:52 | 30.76440 | 122.41124 | 37185 ft | 490 kts | 349° |
| 2026-05-04 07:54 | 31.03623 | 122.42666 | 37187 ft | 487 kts | 350° |
| 2026-05-04 07:55 | 31.10409 | 122.43045 | 37181 ft | 488 kts | 350° |
| 2026-05-04 07:55 | 31.17182 | 122.43426 | 37184 ft | 488 kts | 350° |
| 2026-05-04 07:56 | 31.23967 | 122.43805 | 37179 ft | 489 kts | 350° |
| 2026-05-04 07:56 | 31.30767 | 122.44189 | 37185 ft | 489 kts | 350° |
| 2026-05-04 07:57 | 31.37547 | 122.44584 | 37188 ft | 488 kts | 350° |
| 2026-05-04 07:57 | 31.44209 | 122.44381 | 37187 ft | 468 kts | 339° |
| 2026-05-04 07:58 | 31.47362 | 122.43669 | 37188 ft | 456 kts | 333° |
| 2026-05-04 07:58 | 31.50357 | 122.42575 | 37190 ft | 446 kts | 327° |
| 2026-05-04 07:58 | 31.56124 | 122.39970 | 37188 ft | 444 kts | 326° |
| 2026-05-04 07:59 | 31.61886 | 122.37354 | 37184 ft | 445 kts | 326° |
| 2026-05-04 07:59 | 31.67653 | 122.34719 | 37185 ft | 445 kts | 326° |
| 2026-05-04 08:00 | 31.73426 | 122.32074 | 37178 ft | 445 kts | 326° |
| 2026-05-04 08:02 | 31.96466 | 122.21212 | 37179 ft | 446 kts | 327° |
| 2026-05-04 08:02 | 32.02271 | 122.18586 | 37184 ft | 446 kts | 327° |
| 2026-05-04 08:03 | 32.08073 | 122.15955 | 37176 ft | 447 kts | 327° |
| 2026-05-04 08:03 | 32.13890 | 122.13316 | 37185 ft | 446 kts | 327° |
| 2026-05-04 08:04 | 32.19684 | 122.10683 | 37185 ft | 446 kts | 327° |
| 2026-05-04 08:04 | 32.25464 | 122.08052 | 37188 ft | 445 kts | 327° |
| 2026-05-04 08:05 | 32.31252 | 122.05413 | 37189 ft | 446 kts | 327° |
| 2026-05-04 08:05 | 32.37044 | 122.02769 | 37191 ft | 447 kts | 327° |
| 2026-05-04 08:06 | 32.42896 | 122.00094 | 37190 ft | 447 kts | 327° |
| 2026-05-04 08:06 | 32.48715 | 121.97430 | 37193 ft | 447 kts | 327° |
| 2026-05-04 08:08 | 32.71944 | 121.86760 | 37202 ft | 447 kts | 328° |
| 2026-05-04 08:11 | 32.98147 | 121.74652 | 37209 ft | 448 kts | 328° |
| 2026-05-04 08:11 | 33.06886 | 121.70596 | 37207 ft | 448 kts | 328° |
| 2026-05-04 08:12 | 33.12706 | 121.67890 | 37206 ft | 448 kts | 328° |
| 2026-05-04 08:12 | 33.18556 | 121.65166 | 37205 ft | 449 kts | 329° |
| 2026-05-04 08:13 | 33.24418 | 121.62432 | 37204 ft | 449 kts | 329° |
| 2026-05-04 08:13 | 33.30180 | 121.59522 | 37205 ft | 447 kts | 327° |
| 2026-05-04 08:14 | 33.35894 | 121.56583 | 37204 ft | 447 kts | 327° |
| 2026-05-04 08:16 | 33.58702 | 121.44819 | 37203 ft | 446 kts | 328° |
| 2026-05-04 08:16 | 33.64417 | 121.41861 | 37201 ft | 446 kts | 328° |
| 2026-05-04 08:17 | 33.70224 | 121.38998 | 37199 ft | 450 kts | 330° |
| 2026-05-04 08:17 | 33.76092 | 121.36229 | 37200 ft | 450 kts | 330° |
| 2026-05-04 08:19 | 33.99527 | 121.25123 | 37199 ft | 450 kts | 330° |
| 2026-05-04 08:20 | 34.05354 | 121.22350 | 37189 ft | 450 kts | 330° |
| 2026-05-04 08:20 | 34.11171 | 121.19578 | 37191 ft | 450 kts | 330° |
| 2026-05-04 08:21 | 34.16991 | 121.16801 | 37190 ft | 450 kts | 330° |
| 2026-05-04 08:21 | 34.22816 | 121.14017 | 37191 ft | 450 kts | 330° |
| 2026-05-04 08:22 | 34.28644 | 121.11227 | 37194 ft | 450 kts | 330° |
| 2026-05-04 08:24 | 34.51909 | 121.00049 | 37180 ft | 450 kts | 331° |
| 2026-05-04 08:24 | 34.57731 | 120.97241 | 37180 ft | 450 kts | 331° |
| 2026-05-04 08:25 | 34.63543 | 120.94434 | 37172 ft | 449 kts | 332° |
| 2026-05-04 08:25 | 34.69341 | 120.91630 | 37182 ft | 449 kts | 331° |
| 2026-05-04 08:27 | 34.92564 | 120.80353 | 37172 ft | 449 kts | 332° |
| 2026-05-04 08:28 | 34.98360 | 120.77528 | 37165 ft | 449 kts | 332° |
| 2026-05-04 08:28 | 35.04151 | 120.74701 | 37174 ft | 449 kts | 332° |
| 2026-05-04 08:29 | 35.09944 | 120.71869 | 37162 ft | 448 kts | 332° |
| 2026-05-04 08:31 | 35.33216 | 120.60545 | 37162 ft | 448 kts | 333° |
| 2026-05-04 08:33 | 35.56400 | 120.49293 | 37143 ft | 447 kts | 333° |
| 2026-05-04 08:35 | 35.79546 | 120.37977 | 37139 ft | 446 kts | 333° |
| 2026-05-04 08:35 | 35.85538 | 120.35745 | 37128 ft | 454 kts | 345° |
| 2026-05-04 08:37 | 36.04582 | 120.39535 | 37122 ft | 477 kts | 15° |
| 2026-05-04 08:37 | 36.07700 | 120.40932 | 37138 ft | 475 kts | 14° |
| 2026-05-04 08:38 | 36.13993 | 120.43437 | 37135 ft | 473 kts | 11° |
| 2026-05-04 08:38 | 36.20347 | 120.45551 | 37118 ft | 470 kts | 8° |
| 2026-05-04 08:40 | 36.45687 | 120.53125 | 37114 ft | 474 kts | 15° |
| 2026-05-04 08:41 | 36.51886 | 120.55842 | 37120 ft | 468 kts | 9° |
| 2026-05-04 08:41 | 36.58256 | 120.57147 | 37097 ft | 463 kts | 3° |
| 2026-05-04 08:42 | 36.64617 | 120.58244 | 37111 ft | 461 kts | 3° |
| 2026-05-04 08:42 | 36.70970 | 120.59342 | 37103 ft | 461 kts | 3° |
| 2026-05-04 08:43 | 36.77311 | 120.60441 | 37107 ft | 461 kts | 3° |
| 2026-05-04 08:43 | 36.83654 | 120.61542 | 37108 ft | 460 kts | 3° |
| 2026-05-04 08:44 | 36.89990 | 120.62643 | 37098 ft | 460 kts | 3° |
| 2026-05-04 08:46 | 37.15252 | 120.67312 | 37100 ft | 458 kts | 4° |
| 2026-05-04 08:46 | 37.21558 | 120.68492 | 37088 ft | 457 kts | 4° |
| 2026-05-04 08:47 | 37.27861 | 120.69673 | 37112 ft | 458 kts | 4° |
| 2026-05-04 08:47 | 37.30960 | 120.70259 | 37471 ft | 449 kts | 4° |
| 2026-05-04 08:47 | 37.34060 | 120.70840 | 37485 ft | 450 kts | 4° |
| 2026-05-04 08:48 | 37.40270 | 120.72006 | 37497 ft | 452 kts | 4° |
| 2026-05-04 08:48 | 37.46497 | 120.73180 | 37399 ft | 450 kts | 4° |
| 2026-05-04 08:48 | 37.49613 | 120.73766 | 36984 ft | 452 kts | 4° |
| 2026-05-04 08:49 | 37.52727 | 120.74354 | 36569 ft | 451 kts | 4° |
| 2026-05-04 08:50 | 37.71369 | 120.77003 | 33964 ft | 447 kts | 2° |
| 2026-05-04 08:50 | 37.74468 | 120.77371 | 33408 ft | 447 kts | 2° |
| 2026-05-04 08:51 | 37.77550 | 120.77738 | 32865 ft | 445 kts | 2° |
| 2026-05-04 08:51 | 37.80609 | 120.78103 | 32321 ft | 440 kts | 3° |
| 2026-05-04 08:51 | 37.83642 | 120.78465 | 31771 ft | 435 kts | 3° |
| 2026-05-04 08:51 | 37.86633 | 120.78823 | 31225 ft | 430 kts | 3° |
| 2026-05-04 08:52 | 37.89594 | 120.79177 | 30674 ft | 425 kts | 3° |
| 2026-05-04 08:52 | 37.92520 | 120.79528 | 30115 ft | 420 kts | 3° |
| 2026-05-04 08:52 | 37.95415 | 120.79875 | 29567 ft | 415 kts | 4° |
| 2026-05-04 08:52 | 37.98272 | 120.80225 | 29021 ft | 411 kts | 5° |
| 2026-05-04 08:53 | 38.01038 | 120.81043 | 28489 ft | 411 kts | 19° |
| 2026-05-04 08:54 | 38.17817 | 120.93408 | 24625 ft | 386 kts | 29° |
| 2026-05-04 08:55 | 38.20107 | 120.95133 | 24075 ft | 382 kts | 29° |
| 2026-05-04 08:55 | 38.22371 | 120.96843 | 23523 ft | 378 kts | 30° |
| 2026-05-04 08:55 | 38.24420 | 120.98890 | 22979 ft | 376 kts | 44° |
| 2026-05-04 08:55 | 38.25937 | 121.01571 | 22445 ft | 376 kts | 60° |
| 2026-05-04 08:57 | 38.33175 | 121.22295 | 18583 ft | 357 kts | 64° |
| 2026-05-04 09:01 | 38.52088 | 121.54791 | 10885 ft | 322 kts | 31° |
| 2026-05-04 09:01 | 38.53954 | 121.56341 | 10337 ft | 320 kts | 31° |
| 2026-05-04 09:01 | 38.55811 | 121.57883 | 9788 ft | 318 kts | 31° |
| 2026-05-04 09:01 | 38.57652 | 121.59414 | 9233 ft | 315 kts | 31° |
| 2026-05-04 09:02 | 38.59480 | 121.60932 | 8687 ft | 313 kts | 30° |
| 2026-05-04 09:02 | 38.61387 | 121.62231 | 8141 ft | 310 kts | 22° |
| 2026-05-04 09:02 | 38.63339 | 121.63371 | 7611 ft | 306 kts | 22° |
| 2026-05-04 09:02 | 38.65233 | 121.64485 | 7316 ft | 293 kts | 22° |
| 2026-05-04 09:03 | 38.67046 | 121.65553 | 7123 ft | 280 kts | 22° |
| 2026-05-04 09:03 | 38.68792 | 121.66582 | 6911 ft | 275 kts | 22° |
| 2026-05-04 09:03 | 38.70541 | 121.67612 | 6675 ft | 275 kts | 22° |
| 2026-05-04 09:03 | 38.72279 | 121.68636 | 6444 ft | 275 kts | 22° |
| 2026-05-04 09:04 | 38.74013 | 121.69659 | 6217 ft | 274 kts | 22° |
| 2026-05-04 09:04 | 38.75748 | 121.70684 | 6002 ft | 275 kts | 22° |
| 2026-05-04 09:04 | 38.77484 | 121.71711 | 5797 ft | 275 kts | 22° |
| 2026-05-04 09:04 | 38.79218 | 121.72737 | 5566 ft | 274 kts | 22° |
| 2026-05-04 09:05 | 38.80948 | 121.73763 | 5319 ft | 273 kts | 22° |
| 2026-05-04 09:05 | 38.82662 | 121.74815 | 5117 ft | 275 kts | 26° |
| 2026-05-04 09:05 | 38.84139 | 121.76382 | 4888 ft | 279 kts | 48° |
| 2026-05-04 09:05 | 38.85077 | 121.78561 | 4658 ft | 282 kts | 71° |
| 2026-05-04 09:06 | 38.85289 | 121.81018 | 4453 ft | 274 kts | 94° |
| 2026-05-04 09:07 | 38.91425 | 121.92216 | 2979 ft | 217 kts | 27° |
| 2026-05-04 09:08 | 38.92828 | 121.92595 | 2940 ft | 204 kts | 346° |
| 2026-05-04 09:08 | 38.93973 | 121.91700 | 2952 ft | 192 kts | 302° |
| 2026-05-04 09:08 | 38.94217 | 121.90067 | 2970 ft | 191 kts | 262° |
| 2026-05-04 09:08 | 38.93986 | 121.88443 | 2976 ft | 178 kts | 267° |
| 2026-05-04 09:09 | 38.94022 | 121.86879 | 2975 ft | 172 kts | 274° |
| 2026-05-04 09:09 | 38.94110 | 121.85355 | 2965 ft | 170 kts | 274° |
| 2026-05-04 09:09 | 38.94216 | 121.83844 | 2963 ft | 169 kts | 275° |
| 2026-05-04 09:09 | 38.94332 | 121.82342 | 2964 ft | 169 kts | 275° |
| 2026-05-04 09:10 | 38.94450 | 121.80843 | 2968 ft | 169 kts | 275° |
| 2026-05-04 09:10 | 38.94569 | 121.79345 | 2967 ft | 168 kts | 275° |
| 2026-05-04 09:10 | 38.94687 | 121.77853 | 2974 ft | 168 kts | 275° |
| 2026-05-04 09:10 | 38.94806 | 121.76352 | 2969 ft | 168 kts | 275° |
| 2026-05-04 09:11 | 38.94924 | 121.74873 | 2965 ft | 160 kts | 275° |
| 2026-05-04 09:11 | 38.95025 | 121.73611 | 2901 ft | 128 kts | 275° |
| 2026-05-04 09:11 | 38.95112 | 121.72510 | 2670 ft | 119 kts | 275° |
| 2026-05-04 09:11 | 38.95193 | 121.71476 | 2518 ft | 115 kts | 275° |
| 2026-05-04 09:12 | 38.95273 | 121.70460 | 2363 ft | 113 kts | 274° |
| 2026-05-04 09:12 | 38.95351 | 121.69455 | 2223 ft | 112 kts | 274° |
| 2026-05-04 09:14 | 38.95917 | 121.62526 | 1182 ft | 112 kts | 272° |
| 2026-05-04 09:14 | 38.95983 | 121.61535 | 1056 ft | 112 kts | 272° |
| 2026-05-04 09:14 | 38.96072 | 121.60537 | 911 ft | 112 kts | 275° |
| 2026-05-04 09:14 | 38.96126 | 121.59531 | 791 ft | 112 kts | 273° |
| 2026-05-04 09:15 | 38.96201 | 121.58528 | 634 ft | 113 kts | 272° |
| 2026-05-04 09:15 | 38.96294 | 121.57516 | 456 ft | 114 kts | 272° |
| 2026-05-04 09:15 | 38.96370 | 121.56491 | 322 ft | 115 kts | 270° |
| 2026-05-04 09:15 | 38.96443 | 121.55451 | 151 ft | 117 kts | 273° |
| 2026-05-04 09:17 | 38.96454 | 121.52974 | 112 ft | 5 kts | 248° |
| 2026-05-04 09:18 | 38.96442 | 121.52914 | 112 ft | 8 kts | 272° |
| 2026-05-04 09:18 | 38.96449 | 121.52817 | 112 ft | 12 kts | 276° |
| 2026-05-04 09:18 | 38.96438 | 121.52739 | 112 ft | 10 kts | 207° |
| 2026-05-04 09:18 | 38.96377 | 121.52729 | 112 ft | 3 kts | 186° |
| 2026-05-04 09:19 | 38.96349 | 121.52701 | 112 ft | 7 kts | 270° |
| 2026-05-04 09:19 | 38.96352 | 121.52665 | 112 ft | 4 kts | 277° |
| 2026-05-04 09:19 | 38.96353 | 121.52656 | 112 ft | 0 kts | 277° |